Time;durP1;ratioP1;P1;durP2;ratioP2;P2;SDS_P1;SDS_P2;PMS_P1;PMS_P2;Temp;Humidity;BMP_temperature;BMP_pressure;BME280_temperature;BME280_humidity;BME280_pressure;Samples;Min_cycle;Max_cycle;Signal;HPM_P1;HPM_P2
2021/04/20 06:51:47;;;;;;;40.50;28.15;;;256.10;2252.80;;;;;;5823183;24;20146;31
2021/04/20 06:55:00;;;;;;;42.38;28.63;;;256.30;2252.80;;;;;;4788471;29;20552;-90
2021/04/20 06:57:44;;;;;;;42.08;26.98;;;256.40;2252.80;;;;;;4772413;30;20044;-86
2021/04/20 07:00:24;;;;;;;50.78;31.58;;;256.50;2252.80;;;;;;4757787;30;20195;-89
2021/04/20 07:03:00;;;;;;;49.10;31.48;;;256.70;2252.80;;;;;;4758024;30;20060;-89
2021/04/20 07:06:08;;;;;;;46.38;30.88;;;256.80;2252.80;;;;;;4758514;30;20043;-88
2021/04/20 07:08:54;;;;;;;42.42;24.23;;;256.90;2252.80;;;;;;4772765;30;20074;-85
2021/04/20 07:11:20;;;;;;;36.45;24.58;;;281.60;2252.80;;;;;;4758077;30;20043;-89
2021/04/20 07:13:50;;;;;;;49.42;34.17;;;281.90;2252.80;;;;;;4772785;30;20040;-92
2021/04/20 07:16:33;;;;;;;46.08;28.02;;;282.00;2201.60;;;;;;4758082;30;20052;-92
2021/04/20 07:19:10;;;;;;;;;;;282.00;2227.20;;;;;;4773797;30;20051;-87
2021/04/20 07:21:53;;;;;;;39.50;25.27;;;282.10;2150.40;;;;;;4774064;30;19918;-91
2021/04/20 07:24:20;;;;;;;;;;;282.20;2150.40;;;;;;4776037;30;20042;-84
2021/04/20 07:26:52;;;;;;;57.20;33.42;;;282.30;2176.00;;;;;;4779157;30;20939;-83
2021/04/20 07:29:50;;;;;;;36.33;22.83;;;282.50;2201.60;;;;;;4760702;30;20043;-91
2021/04/20 07:32:37;;;;;;;37.45;25.50;;;282.50;2099.20;;;;;;4759346;30;20036;-93
2021/04/20 07:35:48;;;;;;;25.83;19.27;;;307.30;2176.00;;;;;;4785585;29;20489;-88
2021/04/20 07:38:44;;;;;;;26.45;18.40;;;307.20;2150.40;;;;;;4795021;29;20044;-84
2021/04/20 07:41:15;;;;;;;21.15;16.45;;;307.40;2099.20;;;;;;4790234;29;20417;-85
2021/04/20 07:43:50;;;;;;;39.85;23.08;;;282.40;2022.40;;;;;;4791299;29;20039;-82
2021/04/20 07:46:53;;;;;;;21.33;15.35;;;307.20;2073.60;;;;;;4798514;30;20142;-86
2021/04/20 07:49:31;;;;;;;22.48;14.50;;;282.40;2073.60;;;;;;4728386;30;20037;-86
2021/04/20 07:51:59;;;;;;;21.00;14.65;;;307.30;2073.60;;;;;;4724363;30;20041;-84
2021/04/20 07:54:40;;;;;;;23.90;16.40;;;282.50;1996.80;;;;;;4726017;30;20057;-85
2021/04/20 07:57:30;;;;;;;22.38;16.48;;;307.40;2073.60;;;;;;4719298;30;20045;-84
2021/04/20 08:00:19;;;;;;;26.83;17.23;;;307.40;2048.00;;;;;;4704924;30;20576;-85
2021/04/20 08:03:09;;;;;;;29.48;18.55;;;307.40;2022.40;;;;;;4711274;30;20197;-85
2021/04/20 08:05:44;;;;;;;23.05;16.02;;;307.50;2022.40;;;;;;4717323;30;20049;-85
2021/04/20 08:08:21;;;;;;;22.38;14.85;;;307.60;1996.80;;;;;;4717822;30;20045;-85
2021/04/20 08:10:55;;;;;;;17.80;12.77;;;307.70;1996.80;;;;;;4715473;30;20140;-85
2021/04/20 08:13:32;;;;;;;19.90;12.68;;;307.50;1996.80;;;;;;4717586;30;20087;-85
2021/04/20 08:16:32;;;;;;;19.70;13.00;;;307.50;1996.80;;;;;;4712828;30;20133;-85
2021/04/20 08:18:59;;;;;;;22.55;14.32;;;307.50;1971.20;;;;;;4712449;30;20054;-86
2021/04/20 08:21:28;;;;;;;18.00;13.20;;;307.90;1971.20;;;;;;4718250;30;20128;-85
2021/04/20 08:23:56;;;;;;;28.00;16.23;;;307.80;1971.20;;;;;;4766111;29;20052;-84
2021/04/20 08:26:37;;;;;;;19.50;14.50;;;308.10;1996.80;;;;;;4772000;30;20100;-83
2021/04/20 08:29:09;;;;;;;19.38;13.25;;;308.10;1971.20;;;;;;4771874;30;20066;-84
2021/04/20 08:31:57;;;;;;;24.52;17.52;;;332.90;2048.00;;;;;;4771980;30;20051;-86
2021/04/20 08:34:32;;;;;;;47.17;27.63;;;333.10;1996.80;;;;;;4782068;30;20047;-84
2021/04/20 08:37:01;;;;;;;25.63;17.63;;;332.90;2048.00;;;;;;4789142;30;20074;-81
2021/04/20 08:39:36;;;;;;;23.63;15.85;;;333.50;1920.00;;;;;;4788508;29;20162;-79
2021/04/20 08:42:29;;;;;;;20.67;15.00;;;333.20;1868.80;;;;;;4788426;29;20051;-81
2021/04/20 08:45:28;;;;;;;31.92;19.48;;;333.20;1920.00;;;;;;4788742;29;20067;-80
2021/04/20 08:48:12;;;;;;;68.15;40.75;;;333.20;1894.40;;;;;;4723579;30;20544;-81
2021/04/20 08:50:48;;;;;;;103.45;26.40;;;333.10;1868.80;;;;;;4732305;30;20041;-82
2021/04/20 08:53:47;;;;;;;18.58;13.02;;;333.20;1920.00;;;;;;4740009;30;20187;-84
2021/04/20 08:56:25;;;;;;;16.35;10.75;;;333.10;1868.80;;;;;;4728686;30;20055;-83
2021/04/20 08:59:15;;;;;;;14.35;10.35;;;333.20;1868.80;;;;;;4720434;30;20127;-83
2021/04/20 09:01:58;;;;;;;18.85;12.15;;;333.00;1868.80;;;;;;4727200;30;20064;-87
2021/04/20 09:04:38;;;;;;;19.67;15.00;;;333.20;1894.40;;;;;;4753112;29;20177;-87
2021/04/20 09:07:34;;;;;;;20.15;13.77;;;333.30;1868.80;;;;;;4732994;30;20139;-86
2021/04/20 09:10:12;;;;;;;24.30;13.13;;;333.40;1868.80;;;;;;4731760;30;20048;-84
2021/04/20 09:12:40;;;;;;;19.33;13.20;;;358.40;1894.40;;;;;;4731987;30;20045;-85
2021/04/20 09:15:09;;;;;;;21.45;11.90;;;358.80;1792.00;;;;;;4720485;30;20037;-89
2021/04/20 09:17:49;;;;;;;17.13;11.73;;;358.60;1792.00;;;;;;4721301;30;20087;-89
2021/04/20 09:20:47;;;;;;;21.52;14.88;;;358.50;1715.20;;;;;;4719416;30;20464;-84
2021/04/20 09:23:44;;;;;;;25.67;14.48;;;358.70;1843.20;;;;;;4738466;30;20052;-85
2021/04/20 09:26:19;;;;;;;38.22;20.40;;;359.10;1843.20;;;;;;4788734;29;20047;-86
2021/04/20 09:29:17;;;;;;;18.58;12.50;;;384.10;1715.20;;;;;;4788956;29;20050;-84
2021/04/20 09:32:06;;;;;;;17.88;12.95;;;384.10;1664.00;;;;;;4737965;30;20040;-88
2021/04/20 09:34:54;;;;;;;16.83;12.00;;;384.30;1689.60;;;;;;4738352;30;20047;-91
2021/04/20 09:37:23;;;;;;;55.72;40.25;;;384.30;1664.00;;;;;;4753051;30;20044;-89
2021/04/20 09:39:54;;;;;;;46.60;23.73;;;384.80;1612.80;;;;;;4769710;30;20075;-86
2021/04/20 09:42:21;;;;;;;16.00;11.10;;;384.60;1536.00;;;;;;4755657;30;20193;-89
2021/04/20 09:45:11;;;;;;;51.45;31.52;;;384.80;1612.80;;;;;;4766076;30;20036;-86
2021/04/20 09:47:58;;;;;;;19.17;12.77;;;409.60;1664.00;;;;;;4757475;30;20040;-87
2021/04/20 09:50:53;;;;;;;114.90;19.77;;;384.80;1664.00;;;;;;4728270;30;20051;-87
2021/04/20 09:53:40;;;;;;;66.03;20.42;;;384.60;1664.00;;;;;;4720656;30;20092;-87
2021/04/20 09:56:29;;;;;;;33.28;19.58;;;384.50;1715.20;;;;;;4749058;30;20083;-87
2021/04/20 09:58:59;;;;;;;52.80;20.98;;;384.30;1817.60;;;;;;4719715;30;20047;-88
2021/04/20 10:01:34;;;;;;;32.42;19.15;;;384.10;1817.60;;;;;;4720235;30;20106;-87
2021/04/20 10:04:22;;;;;;;28.88;19.80;;;359.30;1868.80;;;;;;4749727;30;20040;-87
2021/04/20 10:07:09;;;;;;;24.38;16.23;;;359.30;1843.20;;;;;;4719809;30;20049;-87
2021/04/20 10:10:08;;;;;;;21.70;14.23;;;384.10;1817.60;;;;;;4783945;29;20489;-87
2021/04/20 10:13:11;;;;;;;42.95;13.82;;;384.40;1740.80;;;;;;4771147;30;20166;-87
2021/04/20 10:15:52;;;;;;;34.33;15.35;;;384.50;1715.20;;;;;;4770411;30;20040;-86
2021/04/20 10:18:50;;;;;;;27.73;17.25;;;384.40;1689.60;;;;;;4775182;30;20043;-87
2021/04/20 10:33:20;;;;;;;21.70;14.88;;;384.60;1715.20;;;;;;4636983;30;20031;-88
2021/04/20 10:36:28;;;;;;;23.00;14.55;;;384.40;1740.80;;;;;;4603201;31;20091;-89
2021/04/20 10:53:12;;;;;;;10.18;6.63;;;384.40;1766.40;;;;;;4543448;31;20411;-86
2021/04/20 11:20:05;;;;;;;17.85;8.43;;;435.60;1536.00;;;;;;4718593;30;20031;-88
2021/04/20 11:23:15;;;;;;;7.03;5.53;;;435.90;1536.00;;;;;;4753592;30;20130;-86
2021/04/20 11:26:13;;;;;;;23.88;7.55;;;435.70;1408.00;;;;;;4750589;30;20490;-84
2021/04/20 11:29:04;;;;;;;;;;;;;;;;;;;;;
2021/04/20 11:31:51;;;;;;;10.52;6.30;;;461.20;1459.20;;;;;;4762537;30;20135;-86
2021/04/20 11:34:23;;;;;;;7.90;5.82;;;461.20;1408.00;;;;;;4740452;30;20080;-83
2021/04/20 11:36:56;;;;;;;12.88;9.65;;;461.30;1408.00;;;;;;4740092;30;20047;-85
2021/04/20 11:39:36;;;;;;;10.55;7.38;;;461.20;1356.80;;;;;;4739811;30;20052;-85
2021/04/20 11:42:14;;;;;;;10.30;7.50;;;461.10;1382.40;;;;;;4739575;30;20048;-84
2021/04/20 11:45:03;;;;;;;8.93;6.57;;;461.10;1433.60;;;;;;4739980;30;20135;-84
2021/04/20 11:48:11;;;;;;;21.33;7.63;;;460.90;1433.60;;;;;;4739768;30;20108;-84
2021/04/20 11:51:12;;;;;;;9.55;6.85;;;461.00;1408.00;;;;;;4740073;30;20064;-84
2021/04/20 11:54:00;;;;;;;9.70;7.47;;;460.90;1408.00;;;;;;4739210;30;20044;-81
2021/04/20 11:56:48;;;;;;;11.73;7.40;;;461.10;1433.60;;;;;;4753651;30;20036;-85
2021/04/20 12:03:14;;;;;;;9.63;8.38;;;460.90;1356.80;;;;;;4756558;30;20556;-84
2021/04/20 12:05:42;;;;;;;16.60;9.52;;;461.00;1408.00;;;;;;4753729;30;20194;-85
2021/04/20 12:08:11;;;;;;;32.58;11.38;;;461.20;1433.60;;;;;;4753389;30;20037;-85
2021/04/20 12:10:45;;;;;;;10.70;7.50;;;461.60;1408.00;;;;;;4738369;30;20055;-87
2021/04/20 12:13:12;;;;;;;9.70;7.95;;;486.50;1356.80;;;;;;4738633;30;20040;-85
2021/04/20 12:15:38;;;;;;;12.45;9.05;;;486.50;1356.80;;;;;;4752998;30;20047;-85
2021/04/20 12:18:06;;;;;;;9.88;8.07;;;486.50;1382.40;;;;;;4738453;30;20063;-84
2021/04/20 12:20:33;;;;;;;11.10;7.72;;;486.50;1331.20;;;;;;4738813;29;20060;-84
2021/04/20 12:23:00;;;;;;;11.02;7.60;;;461.50;1331.20;;;;;;4756642;30;20040;-85
2021/04/20 12:25:27;;;;;;;10.60;7.50;;;486.50;1305.60;;;;;;4771355;30;20485;-85
2021/04/20 12:28:03;;;;;;;11.77;8.50;;;486.60;1331.20;;;;;;4756930;30;20127;-84
2021/04/20 12:30:31;;;;;;;19.50;12.75;;;486.50;1331.20;;;;;;4756597;30;20113;-84
2021/04/20 12:32:58;;;;;;;15.98;10.82;;;486.40;1356.80;;;;;;4756416;30;20177;-84
2021/04/20 12:35:30;;;;;;;14.43;7.85;;;461.60;1331.20;;;;;;4756768;30;20111;-84
2021/04/20 12:37:59;;;;;;;16.33;8.43;;;461.40;1356.80;;;;;;4757224;30;20525;-84
2021/04/20 12:40:26;;;;;;;20.23;9.52;;;461.40;1408.00;;;;;;4756192;30;20055;-84
2021/04/20 12:42:59;;;;;;;18.70;6.35;;;461.30;1433.60;;;;;;4756801;30;20040;-83
2021/04/20 12:45:28;;;;;;;16.13;11.30;;;461.30;1433.60;;;;;;4756986;30;20048;-83
2021/04/20 12:47:55;;;;;;;17.35;8.55;;;461.30;1433.60;;;;;;4756629;30;20489;-85
2021/04/20 12:50:31;;;;;;;37.05;16.77;;;461.20;1408.00;;;;;;4756627;30;20039;-85
2021/04/20 12:53:05;;;;;;;37.42;10.20;;;461.00;1433.60;;;;;;4756587;30;20447;-84
2021/04/20 12:55:34;;;;;;;46.00;12.85;;;460.80;1484.80;;;;;;4770555;30;20052;-83
2021/04/20 12:58:07;;;;;;;19.92;10.60;;;460.80;1459.20;;;;;;4770904;30;20134;-84
2021/04/20 13:00:34;;;;;;;14.07;7.85;;;436.10;1408.00;;;;;;4771083;30;20131;-85
2021/04/20 13:03:02;;;;;;;16.02;10.30;;;436.00;1459.20;;;;;;4786002;29;20047;-86
2021/04/20 13:05:39;;;;;;;15.68;9.13;;;435.80;1484.80;;;;;;4771553;30;20039;-86
2021/04/20 13:08:14;;;;;;;24.88;9.43;;;435.70;1484.80;;;;;;4785897;29;20540;-85
2021/04/20 13:10:42;;;;;;;28.35;9.23;;;435.70;1484.80;;;;;;4770591;30;20594;-85
2021/04/20 13:13:13;;;;;;;15.82;8.73;;;435.70;1459.20;;;;;;4786108;29;20040;-84
2021/04/20 13:15:41;;;;;;;37.95;12.20;;;435.50;1484.80;;;;;;4785790;29;20043;-85
2021/04/20 13:18:17;;;;;;;34.45;17.70;;;435.60;1459.20;;;;;;4771296;30;20452;-86
2021/04/20 13:20:45;;;;;;;22.05;15.18;;;435.80;1510.40;;;;;;4771234;30;20047;-85
2021/04/20 13:23:28;;;;;;;16.45;9.43;;;436.00;1484.80;;;;;;4771105;30;20047;-85
2021/04/20 13:26:25;;;;;;;24.13;10.60;;;460.80;1459.20;;;;;;4785406;30;20172;-85
2021/04/20 13:28:52;;;;;;;39.22;11.60;;;436.10;1484.80;;;;;;4770288;30;20409;-85
2021/04/20 13:31:20;;;;;;;18.27;10.43;;;435.90;1510.40;;;;;;4770698;30;20489;-86
2021/04/20 13:33:48;;;;;;;15.05;10.18;;;435.80;1510.40;;;;;;4770666;30;20035;-85
2021/04/20 13:36:17;;;;;;;21.27;14.15;;;435.90;1510.40;;;;;;4778202;30;20044;-85
2021/04/20 13:39:06;;;;;;;11.52;7.90;;;436.10;1484.80;;;;;;4783280;30;20035;-85
2021/04/20 13:41:35;;;;;;;11.88;7.88;;;435.90;1433.60;;;;;;4792107;29;20039;-85
2021/04/20 13:44:03;;;;;;;58.67;15.60;;;435.80;1433.60;;;;;;4784476;30;20135;-85
2021/04/20 13:46:34;;;;;;;13.75;9.40;;;435.60;1408.00;;;;;;4786020;30;20117;-83
2021/04/20 13:49:07;;;;;;;15.80;9.35;;;435.40;1433.60;;;;;;4786743;30;20035;-86
2021/04/20 13:51:37;;;;;;;12.15;9.15;;;435.30;1433.60;;;;;;4791349;29;20074;-86
2021/04/20 13:54:07;;;;;;;22.38;15.30;;;435.40;1408.00;;;;;;4771619;30;20083;-85
2021/04/20 13:56:37;;;;;;;14.15;9.43;;;435.30;1408.00;;;;;;4756188;30;20051;-83
2021/04/20 13:59:07;;;;;;;14.88;10.05;;;435.50;1382.40;;;;;;4767048;30;20074;-84
2021/04/20 14:01:38;;;;;;;19.48;11.05;;;410.50;1408.00;;;;;;4787827;29;20058;-85
2021/04/20 14:04:09;;;;;;;19.40;13.93;;;435.40;1459.20;;;;;;4771649;30;20046;-86
2021/04/20 14:06:45;;;;;;;12.95;9.50;;;435.30;1484.80;;;;;;4787742;29;20505;-85
2021/04/20 14:09:13;;;;;;;17.52;10.85;;;435.20;1484.80;;;;;;4796496;30;20290;-82
2021/04/20 14:12:07;;;;;;;19.58;13.05;;;435.40;1612.80;;;;;;4797896;29;20039;-87
2021/04/20 14:15:16;;;;;;;20.17;13.60;;;435.40;1612.80;;;;;;4744332;30;20068;-83
2021/04/20 14:31:54;;;;;;;22.42;15.07;;;435.30;1587.20;;;;;;4753331;30;20525;-90
2021/04/20 14:35:00;;;;;;;17.70;9.00;;;435.60;1587.20;;;;;;4738994;30;20052;-91
2021/04/20 14:48:11;;;;;;;12.95;9.25;;;435.40;1484.80;;;;;;4735567;30;20039;-85
2021/04/20 15:06:03;;;;;;;;;;;;;;;;;;;;;
2021/04/20 15:09:41;;;;;;;;;;;;;;;;;;;;;
2021/04/20 15:12:19;;;;;;;68.90;14.93;;;436.10;1356.80;;;;;;4683203;30;20114;-87
2021/04/20 15:14:54;;;;;;;93.22;13.82;;;436.10;1356.80;;;;;;4728414;30;20068;-87
2021/04/20 15:17:27;;;;;;;108.55;16.75;;;436.00;1356.80;;;;;;4747387;30;20040;-87
2021/04/20 15:19:57;;;;;;;36.00;20.13;;;435.80;1356.80;;;;;;4777531;30;20048;-88
2021/04/20 15:23:17;;;;;;;40.35;17.38;;;435.50;1408.00;;;;;;4762423;30;20043;-86
2021/04/20 15:25:48;;;;;;;27.58;10.45;;;410.50;1536.00;;;;;;4699860;30;20042;-87
2021/04/20 15:28:20;;;;;;;81.15;17.80;;;410.50;1484.80;;;;;;4696573;30;20464;-87
2021/04/20 15:30:52;;;;;;;133.73;22.98;;;435.20;1408.00;;;;;;4707068;30;20060;-87
2021/04/20 15:33:32;;;;;;;32.47;12.35;;;435.30;1408.00;;;;;;4735445;30;20041;-86
2021/04/20 15:36:06;;;;;;;47.53;14.45;;;410.50;1484.80;;;;;;4730264;30;20140;-85
2021/04/20 15:38:40;;;;;;;109.88;18.70;;;410.50;1459.20;;;;;;4699315;30;20080;-85
2021/04/20 15:41:07;;;;;;;360.80;46.42;;;410.30;1484.80;;;;;;4732753;30;20149;-85
2021/04/20 15:43:35;;;;;;;280.00;36.45;;;410.50;1484.80;;;;;;4703510;30;20068;-85
2021/04/20 16:15:44;;;;;;;19.38;12.27;;;435.30;1510.40;;;;;;4789415;29;20089;-85
2021/04/20 16:19:07;;;;;;;;;;;;;;;;;;;;;
2021/04/20 16:36:09;;;;;;;;;;;;;;;;;;;;;
2021/04/20 16:39:18;;;;;;;27.75;18.13;;;409.60;1510.40;;;;;;4771016;30;20043;-84
2021/04/20 16:42:02;;;;;;;29.95;17.75;;;409.60;1536.00;;;;;;4755953;30;20444;-85
2021/04/20 16:44:30;;;;;;;;;;;384.70;1536.00;;;;;;4763636;29;20048;-86
2021/04/20 16:47:28;;;;;;;40.15;26.45;;;384.80;1510.40;;;;;;4738552;30;20316;-86
2021/04/20 16:50:35;;;;;;;58.47;31.55;;;384.70;1510.40;;;;;;4765974;30;20512;-85
2021/04/20 16:53:39;;;;;;;111.63;67.28;;;384.60;1536.00;;;;;;4769759;30;20051;-87
2021/04/20 16:56:29;;;;;;;93.55;56.55;;;384.50;1561.60;;;;;;4718868;30;20091;-87
2021/04/20 16:58:58;;;;;;;79.40;49.67;;;384.60;1561.60;;;;;;4706514;30;20045;-86
2021/04/20 17:01:44;;;;;;;64.32;39.35;;;384.50;1561.60;;;;;;4701364;30;20057;-87
2021/04/20 17:04:14;;;;;;;61.72;40.33;;;384.60;1536.00;;;;;;4704314;30;20034;-85
2021/04/20 17:06:58;;;;;;;64.93;38.35;;;384.60;1561.60;;;;;;4704120;30;20045;-85
2021/04/20 17:10:19;;;;;;;38.10;27.98;;;384.60;1587.20;;;;;;4705461;30;20539;-87
2021/04/20 17:23:09;;;;;;;35.25;24.02;;;384.10;1792.00;;;;;;4700795;30;20104;-84
2021/04/20 17:26:04;;;;;;;41.03;23.55;;;359.30;1792.00;;;;;;4686356;30;20043;-85
2021/04/20 17:28:38;;;;;;;26.35;18.52;;;384.00;1817.60;;;;;;4686746;30;20053;-86
2021/04/20 17:31:28;;;;;;;32.05;21.55;;;359.00;1843.20;;;;;;4691603;30;20511;-85
2021/04/20 17:34:21;;;;;;;28.30;19.80;;;358.80;1894.40;;;;;;4727432;30;20037;-87
2021/04/20 17:37:02;;;;;;;;;;;358.40;1894.40;;;;;;4734213;30;20127;-85
2021/04/20 17:39:45;;;;;;;20.02;13.45;;;333.60;1920.00;;;;;;4727920;30;19910;-85
2021/04/20 17:42:22;;;;;;;38.40;23.40;;;333.20;1996.80;;;;;;4732121;30;20052;-85
2021/04/20 17:45:09;;;;;;;33.00;20.25;;;333.00;1996.80;;;;;;4716731;30;20041;-84
2021/04/20 17:48:01;;;;;;;53.05;34.25;;;332.80;2048.00;;;;;;4731083;30;20075;-84
2021/04/20 17:51:07;;;;;;;40.95;24.90;;;332.80;2048.00;;;;;;4722292;30;20068;-87
2021/04/20 17:54:10;;;;;;;;;;;;;;;;;;;;;
2021/04/20 17:56:49;;;;;;;41.50;26.45;;;307.70;2073.60;;;;;;4745313;30;20039;-87
2021/04/20 17:59:52;;;;;;;50.95;34.85;;;307.80;2048.00;;;;;;4757436;30;20400;-87
2021/04/20 18:02:30;;;;;;;42.95;30.48;;;307.80;2048.00;;;;;;4757633;30;20055;-86
2021/04/20 18:05:10;;;;;;;26.55;17.35;;;307.60;2073.60;;;;;;4756683;30;20040;-87
2021/04/20 18:07:59;;;;;;;23.98;17.58;;;307.60;2048.00;;;;;;4756938;30;20035;-89
2021/04/20 18:10:54;;;;;;;32.63;21.30;;;307.50;2073.60;;;;;;4740257;30;20067;-91
2021/04/20 18:13:51;;;;;;;39.85;28.00;;;307.60;2048.00;;;;;;4744617;30;20085;-90
2021/04/20 18:16:46;;;;;;;67.05;46.30;;;307.60;2048.00;;;;;;4772330;30;20044;-87
2021/04/20 18:19:42;;;;;;;62.50;37.17;;;307.40;2099.20;;;;;;4756753;30;20109;-89
2021/04/20 18:22:14;;;;;;;65.65;39.90;;;307.40;2150.40;;;;;;4758833;30;20067;-90
2021/04/20 18:24:57;;;;;;;50.63;32.80;;;307.20;2124.80;;;;;;4761211;30;20044;-90
2021/04/20 18:27:44;;;;;;;42.38;29.30;;;282.50;2099.20;;;;;;4753694;30;20066;-90
2021/04/20 18:30:31;;;;;;;44.47;30.20;;;307.20;2124.80;;;;;;4776318;30;20040;-89
2021/04/20 18:33:08;;;;;;;60.40;40.55;;;307.60;2099.20;;;;;;4763276;30;20035;-87
2021/04/20 18:36:09;;;;;;;51.83;33.95;;;307.60;2073.60;;;;;;4771909;30;20047;-88
2021/04/20 18:39:10;;;;;;;60.53;39.63;;;307.40;2099.20;;;;;;4772187;30;20054;-88
2021/04/20 18:42:05;;;;;;;54.00;33.10;;;307.20;2150.40;;;;;;4758143;30;20082;-85
2021/04/20 18:44:42;;;;;;;57.05;36.35;;;282.40;2099.20;;;;;;4773057;30;20123;-85
2021/04/20 18:47:33;;;;;;;43.70;26.90;;;282.30;2099.20;;;;;;4759426;30;20044;-85
2021/04/20 18:50:08;;;;;;;40.10;22.42;;;282.30;2099.20;;;;;;4758831;30;20048;-85
2021/04/20 18:52:49;;;;;;;32.70;19.52;;;282.20;2073.60;;;;;;4758859;30;20117;-85
2021/04/20 18:55:33;;;;;;;21.77;13.43;;;282.10;2073.60;;;;;;4759140;30;20089;-85
2021/04/20 18:58:20;;;;;;;14.63;11.07;;;282.10;2099.20;;;;;;4745244;30;20122;-83
2021/04/20 19:00:55;;;;;;;17.05;11.00;;;282.10;2099.20;;;;;;4774587;30;20044;-88
2021/04/20 19:03:40;;;;;;;17.90;12.38;;;282.00;2099.20;;;;;;4759030;30;20036;-87
2021/04/20 19:06:25;;;;;;;15.90;11.10;;;281.90;2124.80;;;;;;4758446;30;20050;-87
2021/04/20 19:09:01;;;;;;;10.48;7.75;;;282.00;2099.20;;;;;;4758283;30;20043;-86
2021/04/20 19:11:52;;;;;;;12.93;8.40;;;282.00;2073.60;;;;;;4758537;30;20044;-87
2021/04/20 19:14:41;;;;;;;17.23;11.68;;;281.90;2073.60;;;;;;4758952;30;20453;-87
2021/04/20 19:17:34;;;;;;;16.88;11.30;;;281.90;2073.60;;;;;;4758738;30;20044;-88
2021/04/20 19:20:33;;;;;;;19.38;12.52;;;281.90;2073.60;;;;;;4758409;30;20048;-87
2021/04/20 19:23:39;;;;;;;21.38;12.90;;;281.80;2073.60;;;;;;4744400;30;20052;-89
2021/04/20 19:26:51;;;;;;;12.75;8.18;;;281.90;2099.20;;;;;;4702873;30;20042;-87
2021/04/20 19:29:41;;;;;;;12.07;8.60;;;281.70;2124.80;;;;;;4707193;30;20038;-88
2021/04/20 19:32:29;;;;;;;13.30;10.02;;;281.60;2099.20;;;;;;4710396;30;20560;-84
2021/04/20 19:35:31;;;;;;;15.38;8.90;;;281.70;2099.20;;;;;;4706345;30;20137;-86
2021/04/20 19:38:19;;;;;;;15.32;10.60;;;281.60;2099.20;;;;;;4702429;30;20044;-84
2021/04/20 19:41:18;;;;;;;18.10;10.63;;;281.60;2099.20;;;;;;4693499;30;20054;-86
2021/04/20 19:44:08;;;;;;;16.13;8.73;;;281.70;2099.20;;;;;;4684548;30;20139;-88
2021/04/20 19:46:50;;;;;;;14.88;8.82;;;281.70;2073.60;;;;;;4682359;30;20048;-85
2021/04/20 19:49:39;;;;;;;12.98;6.72;;;281.70;2073.60;;;;;;4667674;30;20053;-86
2021/04/20 19:52:07;;;;;;;15.07;9.48;;;281.70;2073.60;;;;;;4669401;30;20054;-84
2021/04/20 19:54:35;;;;;;;20.50;12.95;;;281.80;2073.60;;;;;;4725668;30;20494;-84
2021/04/20 19:57:01;;;;;;;25.33;13.23;;;281.90;2073.60;;;;;;4754879;30;20440;-86
2021/04/20 19:59:29;;;;;;;22.20;13.77;;;282.00;2073.60;;;;;;4741364;30;20093;-85
2021/04/20 20:01:57;;;;;;;26.13;15.63;;;282.10;2073.60;;;;;;4757884;30;20064;-84
2021/04/20 20:04:24;;;;;;;31.70;17.88;;;282.10;2073.60;;;;;;4761880;30;20504;-84
2021/04/20 20:06:56;;;;;;;22.95;13.88;;;282.20;2099.20;;;;;;4754608;30;20036;-85
2021/04/20 20:09:26;;;;;;;19.52;12.18;;;282.00;2073.60;;;;;;4755480;30;20138;-86
2021/04/20 20:12:00;;;;;;;17.15;12.32;;;282.20;2073.60;;;;;;4762558;30;20060;-85
2021/04/20 20:14:27;;;;;;;10.85;8.02;;;282.20;2048.00;;;;;;4764215;30;20101;-86
2021/04/20 20:17:13;;;;;;;26.38;17.20;;;282.20;2073.60;;;;;;4748082;30;20131;-85
2021/04/20 20:19:54;;;;;;;16.38;10.18;;;282.30;2048.00;;;;;;4767343;30;20064;-85
2021/04/20 20:22:28;;;;;;;18.95;11.48;;;282.30;2048.00;;;;;;4767733;30;20056;-84
2021/04/20 20:24:57;;;;;;;14.80;9.05;;;282.20;2073.60;;;;;;4768490;30;20117;-83
2021/04/20 20:27:31;;;;;;;20.05;12.02;;;282.20;2048.00;;;;;;4766810;30;20048;-86
2021/04/20 20:30:06;;;;;;;32.70;17.42;;;282.20;2048.00;;;;;;4787566;30;20044;-85
2021/04/20 20:32:42;;;;;;;26.08;15.70;;;282.10;2099.20;;;;;;4781505;30;20115;-83
2021/04/20 20:35:22;;;;;;;20.15;12.93;;;282.10;2099.20;;;;;;4774736;30;20050;-86
2021/04/20 20:37:56;;;;;;;22.67;13.57;;;282.10;2124.80;;;;;;4768348;30;20036;-84
2021/04/20 20:40:24;;;;;;;18.13;13.07;;;282.20;2150.40;;;;;;4746790;30;20054;-83
2021/04/20 20:42:57;;;;;;;37.03;21.08;;;282.20;2124.80;;;;;;4753374;30;20045;-84
2021/04/20 20:45:24;;;;;;;19.40;14.45;;;282.20;2124.80;;;;;;4762640;30;20040;-85
2021/04/20 20:48:01;;;;;;;17.80;11.80;;;282.20;2099.20;;;;;;4762934;30;20135;-84
2021/04/20 20:50:28;;;;;;;16.40;11.40;;;282.20;2124.80;;;;;;4764218;30;20037;-82
2021/04/20 20:52:55;;;;;;;18.52;12.73;;;282.20;2124.80;;;;;;4753217;30;20044;-83
2021/04/20 20:55:32;;;;;;;19.25;11.05;;;282.10;2150.40;;;;;;4753429;30;20087;-81
2021/04/20 20:58:01;;;;;;;17.73;11.10;;;282.10;2124.80;;;;;;4753345;30;20179;-82
2021/04/20 21:00:27;;;;;;;63.45;32.78;;;282.10;2099.20;;;;;;4755759;30;20048;-84
2021/04/20 21:02:57;;;;;;;20.23;13.45;;;282.00;2124.80;;;;;;4771950;30;20051;-83
2021/04/20 21:05:34;;;;;;;12.48;8.63;;;282.00;2124.80;;;;;;4772183;30;20427;-83
2021/04/20 21:08:03;;;;;;;15.52;8.85;;;282.00;2099.20;;;;;;4755737;30;20139;-83
2021/04/20 21:10:35;;;;;;;49.30;25.73;;;282.00;2099.20;;;;;;4786793;29;20059;-83
2021/04/20 21:13:29;;;;;;;23.17;14.93;;;282.00;2099.20;;;;;;4788827;29;20043;-85
2021/04/20 21:15:59;;;;;;;18.77;12.00;;;282.00;2124.80;;;;;;4788078;30;20039;-83
2021/04/20 21:18:43;;;;;;;23.00;13.98;;;282.00;2124.80;;;;;;4803821;29;20039;-84
2021/04/20 21:21:15;;;;;;;14.32;9.55;;;282.10;2099.20;;;;;;4788354;30;20101;-83
2021/04/20 21:23:44;;;;;;;17.77;11.70;;;282.00;2099.20;;;;;;4788272;29;20039;-83
2021/04/20 21:26:36;;;;;;;15.95;10.18;;;282.10;2099.20;;;;;;4788418;29;20043;-83
2021/04/20 21:29:10;;;;;;;19.98;14.30;;;282.00;2099.20;;;;;;4789543;30;20039;-82
2021/04/20 21:31:36;;;;;;;24.52;18.27;;;281.80;2150.40;;;;;;4788053;30;20036;-84
2021/04/20 21:34:07;;;;;;;22.95;15.10;;;281.70;2176.00;;;;;;4788644;29;20039;-84
2021/04/20 21:36:35;;;;;;;25.60;16.92;;;281.70;2176.00;;;;;;4788202;29;20042;-82
2021/04/20 21:39:14;;;;;;;38.95;24.23;;;281.60;2201.60;;;;;;4788244;30;20134;-83
2021/04/20 21:41:49;;;;;;;39.22;23.77;;;281.80;2176.00;;;;;;4785809;29;20421;-82
2021/04/20 21:44:24;;;;;;;41.50;27.80;;;281.80;2201.60;;;;;;4788279;30;20042;-84
2021/04/20 21:46:55;;;;;;;51.40;31.27;;;281.80;2201.60;;;;;;4788159;29;20130;-83
2021/04/20 21:49:56;;;;;;;59.95;32.28;;;281.70;2252.80;;;;;;4781478;29;20056;-82
2021/04/20 21:52:29;;;;;;;53.50;32.95;;;281.70;2252.80;;;;;;4746412;30;20044;-82
2021/04/20 21:55:03;;;;;;;37.67;25.92;;;281.60;2278.40;;;;;;4761776;30;20043;-84
2021/04/20 21:57:35;;;;;;;32.58;21.15;;;256.90;2252.80;;;;;;4769431;30;20126;-84
2021/04/20 22:00:12;;;;;;;47.05;28.55;;;256.80;2252.80;;;;;;4769569;30;20398;-84
2021/04/20 22:02:41;;;;;;;34.50;19.92;;;256.70;2252.80;;;;;;4769611;30;20521;-85
2021/04/20 22:05:08;;;;;;;29.27;17.58;;;256.60;2252.80;;;;;;4769161;30;20086;-84
2021/04/20 22:07:49;;;;;;;24.02;16.52;;;256.60;2252.80;;;;;;4737276;30;20132;-83
2021/04/20 22:10:29;;;;;;;27.52;15.90;;;256.70;2252.80;;;;;;4751049;30;20052;-84
2021/04/20 22:12:59;;;;;;;25.30;14.82;;;256.70;2252.80;;;;;;4751373;30;20437;-84
2021/04/20 22:15:33;;;;;;;25.00;15.80;;;256.70;2252.80;;;;;;4751678;30;20044;-84
2021/04/20 22:18:09;;;;;;;20.60;13.18;;;256.60;2252.80;;;;;;4751690;30;20037;-85
2021/04/20 22:20:38;;;;;;;18.17;11.80;;;256.50;2252.80;;;;;;4751671;30;20060;-84
2021/04/20 22:23:19;;;;;;;21.35;13.70;;;256.60;2252.80;;;;;;4781122;29;20036;-84
2021/04/20 22:26:16;;;;;;;20.48;12.75;;;256.70;2252.80;;;;;;4784391;29;20059;-84
2021/04/20 22:28:43;;;;;;;23.98;13.15;;;256.80;2252.80;;;;;;4783047;29;20081;-84
2021/04/20 22:31:28;;;;;;;23.17;13.45;;;256.70;2252.80;;;;;;4782536;30;20067;-84
2021/04/20 22:33:58;;;;;;;19.33;12.07;;;256.70;2252.80;;;;;;4788321;29;20112;-85